createdAt,value
2018-07-14T00:00:37.669Z,1012.04
2018-07-14T00:01:37.661Z,1012.1
2018-07-14T00:02:37.645Z,1012.04
2018-07-14T00:03:37.636Z,1012.01
2018-07-14T00:04:37.627Z,1012.04
2018-07-14T00:05:37.616Z,1012.05
2018-07-14T00:06:37.605Z,1012.05
2018-07-14T00:07:37.592Z,1012.08
2018-07-14T00:08:37.582Z,1012.04
2018-07-14T00:09:37.577Z,1012.08
2018-07-14T00:10:37.561Z,1012.08
2018-07-14T00:11:37.551Z,1012.05
2018-07-14T00:12:37.540Z,1012.06
2018-07-14T00:13:37.529Z,1012.03
2018-07-14T00:14:37.521Z,1012.04
2018-07-14T00:15:37.505Z,1012.01
2018-07-14T00:16:37.498Z,1012.06
2018-07-14T00:17:37.490Z,1011.99
2018-07-14T00:18:37.473Z,1011.99
2018-07-14T00:19:37.465Z,1012.01
2018-07-14T00:20:37.456Z,1012
2018-07-14T00:21:37.444Z,1012
2018-07-14T00:22:37.429Z,1012.02
2018-07-14T00:23:37.418Z,1011.98
2018-07-14T00:24:37.413Z,1012.03
2018-07-14T00:25:37.398Z,1012.03
2018-07-14T00:26:37.384Z,1011.99
2018-07-14T00:27:37.375Z,1012.01
2018-07-14T00:28:37.365Z,1012.06
2018-07-14T00:29:37.355Z,1012.02
2018-07-14T00:30:37.342Z,1012
2018-07-14T00:31:37.332Z,1011.97
2018-07-14T00:32:37.321Z,1011.96
2018-07-14T00:33:37.308Z,1011.97
2018-07-14T00:34:37.306Z,1011.99
2018-07-14T00:35:37.291Z,1012
2018-07-14T00:36:37.284Z,1011.99
2018-07-14T00:37:37.265Z,1012.01
2018-07-14T00:38:37.261Z,1011.99
2018-07-14T00:39:37.244Z,1012.04
2018-07-14T00:40:37.231Z,1011.99
2018-07-14T00:41:37.220Z,1011.95
2018-07-14T00:42:37.210Z,1011.95
2018-07-14T00:43:37.197Z,1011.97
2018-07-14T00:44:37.186Z,1011.95
2018-07-14T00:45:37.175Z,1012
2018-07-14T00:46:37.180Z,1011.97
2018-07-14T00:47:37.152Z,1011.94
2018-07-14T00:48:37.141Z,1011.95
2018-07-14T00:49:37.129Z,1011.93
2018-07-14T00:50:37.119Z,1011.97
2018-07-14T00:51:37.109Z,1012
2018-07-14T00:52:37.100Z,1011.99
2018-07-14T00:53:37.087Z,1012
2018-07-14T00:54:37.077Z,1011.96
2018-07-14T00:55:37.061Z,1011.95
2018-07-14T00:56:37.056Z,1011.93
2018-07-14T00:57:37.042Z,1011.93
2018-07-14T00:58:37.030Z,1011.92
2018-07-14T00:59:37.020Z,1011.93
2018-07-14T01:00:37.007Z,1011.92
2018-07-14T01:01:36.995Z,1011.94
2018-07-14T01:02:36.985Z,1011.98
2018-07-14T01:03:36.974Z,1011.95
2018-07-14T01:04:36.971Z,1011.95
2018-07-14T01:05:36.951Z,1011.93
2018-07-14T01:06:36.950Z,1012
2018-07-14T01:07:36.930Z,1012
2018-07-14T01:08:36.919Z,1011.99
2018-07-14T01:09:36.910Z,1012
2018-07-14T01:10:36.897Z,1012.04
2018-07-14T01:11:36.883Z,1012.04
2018-07-14T01:12:36.872Z,1012.06
2018-07-14T01:13:36.864Z,1012.06
2018-07-14T01:14:36.849Z,1012.06
2018-07-14T01:15:36.838Z,1012.06
2018-07-14T01:16:36.827Z,1012.05
2018-07-14T01:17:36.815Z,1012.07
2018-07-14T01:18:36.809Z,1012.06
2018-07-14T01:19:36.793Z,1012.03
2018-07-14T01:20:36.779Z,1012.05
2018-07-14T01:21:36.771Z,1012.02
2018-07-14T01:22:36.762Z,1012.01
2018-07-14T01:23:36.748Z,1012.03
2018-07-14T01:24:36.734Z,1012.02
2018-07-14T01:25:36.723Z,1012.01
2018-07-14T01:26:36.712Z,1012.02
2018-07-14T01:27:36.699Z,1012.04
2018-07-14T01:28:36.687Z,1012.01
2018-07-14T01:29:36.677Z,1012.06
2018-07-14T01:30:36.664Z,1012.07
2018-07-14T01:31:36.654Z,1012.04
2018-07-14T01:32:36.642Z,1012.07
2018-07-14T01:33:36.630Z,1012.03
2018-07-14T01:34:36.619Z,1012.05
2018-07-14T01:35:36.606Z,1012.02
2018-07-14T01:36:36.596Z,1012.02
2018-07-14T01:37:36.582Z,1012
2018-07-14T01:38:36.571Z,1012.01
2018-07-14T01:39:36.563Z,1012
2018-07-14T01:40:36.605Z,1012.03
2018-07-14T01:41:36.537Z,1012.07
2018-07-14T01:42:36.525Z,1012.02
2018-07-14T01:43:36.513Z,1012.05
2018-07-14T01:44:36.502Z,1012.02
2018-07-14T01:45:36.489Z,1012.06
2018-07-14T01:46:36.478Z,1012.04
2018-07-14T01:47:36.465Z,1012.06
2018-07-14T01:48:36.456Z,1012.01
2018-07-14T01:49:36.441Z,1012.01
2018-07-14T01:50:36.431Z,1012.02
2018-07-14T01:51:36.419Z,1012.01
2018-07-14T01:52:36.412Z,1011.97
2018-07-14T01:53:36.396Z,1012.05
2018-07-14T01:54:36.382Z,1012.02
2018-07-14T01:55:36.575Z,1012.03
2018-07-14T01:56:36.364Z,1012.04
2018-07-14T01:57:36.349Z,1012.05
2018-07-14T01:58:36.337Z,1012.04
2018-07-14T01:59:36.324Z,1012.04
2018-07-14T02:00:36.312Z,1012.05
2018-07-14T02:01:36.300Z,1012.06
2018-07-14T02:02:36.289Z,1012.07
2018-07-14T02:03:36.278Z,1012.06
2018-07-14T02:04:36.266Z,1012.08
2018-07-14T02:05:36.252Z,1012.1
2018-07-14T02:06:36.247Z,1012.11
2018-07-14T02:07:36.230Z,1012.08
2018-07-14T02:08:36.232Z,1012.1
2018-07-14T02:09:36.206Z,1012.06
2018-07-14T02:10:36.193Z,1012.08
2018-07-14T02:11:36.182Z,1012.05
2018-07-14T02:12:36.170Z,1012
2018-07-14T02:13:36.158Z,1012.03
2018-07-14T02:14:36.147Z,1012.03
2018-07-14T02:15:36.179Z,1012.03
2018-07-14T02:16:36.123Z,1012.07
2018-07-14T02:17:36.124Z,1012.05
2018-07-14T02:18:36.101Z,1012.04
2018-07-14T02:19:36.090Z,1012.06
2018-07-14T02:20:36.074Z,1012.08
2018-07-14T02:21:36.064Z,1012.12
2018-07-14T02:22:36.051Z,1012.13
2018-07-14T02:23:36.039Z,1012.17
2018-07-14T02:24:36.026Z,1012.13
2018-07-14T02:25:36.015Z,1012.16
2018-07-14T02:26:36.003Z,1012.13
2018-07-14T02:27:35.991Z,1012.14
2018-07-14T02:28:35.977Z,1012.17
2018-07-14T02:29:35.973Z,1012.17
2018-07-14T02:30:35.958Z,1012.16
2018-07-14T02:31:35.944Z,1012.18
2018-07-14T02:32:35.932Z,1012.17
2018-07-14T02:33:35.917Z,1012.21
2018-07-14T02:34:35.907Z,1012.18
2018-07-14T02:35:35.894Z,1012.12
2018-07-14T02:36:35.884Z,1012.12
2018-07-14T02:37:35.869Z,1012.12
2018-07-14T02:38:35.857Z,1012.16
2018-07-14T02:39:35.846Z,1012.11
2018-07-14T02:40:35.834Z,1012.15
2018-07-14T02:41:35.821Z,1012.15
2018-07-14T02:42:35.820Z,1012.13
2018-07-14T02:43:35.798Z,1012.14
2018-07-14T02:44:35.802Z,1012.14
2018-07-14T02:45:35.776Z,1012.13
2018-07-14T02:46:35.765Z,1012.13
2018-07-14T02:47:35.749Z,1012.13
2018-07-14T02:48:35.736Z,1012.15
2018-07-14T02:49:35.724Z,1012.18
2018-07-14T02:50:35.722Z,1012.18
2018-07-14T02:51:35.700Z,1012.21
2018-07-14T02:52:35.688Z,1012.18
2018-07-14T02:53:35.676Z,1012.2
2018-07-14T02:54:35.664Z,1012.2
2018-07-14T02:55:35.649Z,1012.2
2018-07-14T02:56:35.639Z,1012.23
2018-07-14T02:57:35.625Z,1012.21
2018-07-14T02:58:35.620Z,1012.24
2018-07-14T02:59:35.604Z,1012.2
2018-07-14T03:00:35.589Z,1012.2
2018-07-14T03:01:35.582Z,1012.22
2018-07-14T03:02:35.564Z,1012.19
2018-07-14T03:03:35.558Z,1012.21
2018-07-14T03:04:35.543Z,1012.2
2018-07-14T03:05:35.528Z,1012.19
2018-07-14T03:06:35.521Z,1012.17
2018-07-14T03:07:35.504Z,1012.17
2018-07-14T03:08:35.496Z,1012.17
2018-07-14T03:09:35.481Z,1012.14
2018-07-14T03:10:35.465Z,1012.19
2018-07-14T03:11:35.455Z,1012.17
2018-07-14T03:12:35.445Z,1012.21
2018-07-14T03:13:35.429Z,1012.18
2018-07-14T03:14:35.417Z,1012.22
2018-07-14T03:15:35.407Z,1012.19
2018-07-14T03:16:35.392Z,1012.13
2018-07-14T03:17:35.378Z,1012.17
2018-07-14T03:18:35.366Z,1012.19
2018-07-14T03:19:35.451Z,1012.12
2018-07-14T03:20:35.341Z,1012.12
2018-07-14T03:21:35.327Z,1012.12
2018-07-14T03:22:35.317Z,1012.1
2018-07-14T03:23:35.304Z,1012.08
2018-07-14T03:24:35.289Z,1012.05
2018-07-14T03:25:35.281Z,1012.07
2018-07-14T03:26:35.267Z,1012.03
2018-07-14T03:27:35.256Z,1012.04
2018-07-14T03:28:35.241Z,1012.03
2018-07-14T03:29:35.229Z,1012.02
2018-07-14T03:31:35.211Z,1012.06
2018-07-14T03:32:35.191Z,1012.02
2018-07-14T03:33:35.180Z,1012.03
2018-07-14T03:34:35.166Z,1012.01
2018-07-14T03:35:35.155Z,1012.01
2018-07-14T03:36:35.192Z,1012
2018-07-14T03:37:35.129Z,1011.98
2018-07-14T03:38:35.116Z,1011.97
2018-07-14T03:39:35.105Z,1011.97
2018-07-14T03:40:35.091Z,1011.96
2018-07-14T03:41:35.080Z,1011.97
2018-07-14T03:42:35.067Z,1012.01
2018-07-14T03:43:35.053Z,1011.98
2018-07-14T03:44:35.042Z,1012.01
2018-07-14T03:45:35.028Z,1011.99
2018-07-14T03:46:35.018Z,1012.02
2018-07-14T03:47:35.003Z,1012.02
2018-07-14T03:48:34.993Z,1012.01
2018-07-14T03:49:34.977Z,1011.99
2018-07-14T03:50:34.967Z,1012
2018-07-14T03:51:34.957Z,1011.98
2018-07-14T03:52:34.940Z,1012.02
2018-07-14T03:53:34.929Z,1012.01
2018-07-14T03:54:34.914Z,1012.03
2018-07-14T03:55:35.106Z,1012
2018-07-14T03:56:34.890Z,1012.04
2018-07-14T03:57:34.879Z,1012.04
2018-07-14T03:58:34.865Z,1012
2018-07-14T03:59:34.853Z,1012.03
2018-07-14T04:00:34.848Z,1012.02
2018-07-14T04:01:34.826Z,1011.97
2018-07-14T04:02:34.816Z,1011.96
2018-07-14T04:03:34.803Z,1011.95
2018-07-14T04:04:34.792Z,1011.99
2018-07-14T04:05:34.781Z,1011.99
2018-07-14T04:06:34.821Z,1012.04
2018-07-14T04:07:34.755Z,1012.03
2018-07-14T04:08:34.740Z,1012.04
2018-07-14T04:09:34.727Z,1012.05
2018-07-14T04:10:34.714Z,1012.04
2018-07-14T04:11:34.703Z,1012.06
2018-07-14T04:12:34.693Z,1012.06
2018-07-14T04:13:34.679Z,1012.06
2018-07-14T04:14:34.670Z,1012.05
2018-07-14T04:15:34.653Z,1012.05
2018-07-14T04:16:34.640Z,1012.06
2018-07-14T04:17:34.628Z,1012.08
2018-07-14T04:18:34.616Z,1012.09
2018-07-14T04:19:34.602Z,1012.1
2018-07-14T04:20:34.590Z,1012.04
2018-07-14T04:21:34.577Z,1012.06
2018-07-14T04:22:34.565Z,1012.04
2018-07-14T04:23:34.551Z,1012.03
2018-07-14T04:24:34.539Z,1012.01
2018-07-14T04:25:34.528Z,1012.01
2018-07-14T04:26:34.514Z,1012.04
2018-07-14T04:27:34.503Z,1012.03
2018-07-14T04:28:34.491Z,1012.03
2018-07-14T04:29:34.478Z,1012.04
2018-07-14T04:30:34.463Z,1012.05
2018-07-14T04:31:34.453Z,1012.05
2018-07-14T04:32:34.439Z,1012.09
2018-07-14T04:33:34.430Z,1012.03
2018-07-14T04:34:34.416Z,1012.02
2018-07-14T04:35:34.402Z,1011.99
2018-07-14T04:36:34.390Z,1011.99
2018-07-14T04:37:34.375Z,1012.01
2018-07-14T04:38:34.364Z,1012.01
2018-07-14T04:39:34.350Z,1011.99
2018-07-14T04:40:34.338Z,1012.02
2018-07-14T04:41:34.327Z,1012.02
2018-07-14T04:42:34.316Z,1012.03
2018-07-14T04:43:34.305Z,1012.06
2018-07-14T04:44:34.289Z,1012.1
2018-07-14T04:45:34.279Z,1012.11
2018-07-14T04:46:34.264Z,1012.15
2018-07-14T04:47:34.254Z,1012.17
2018-07-14T04:48:34.238Z,1012.17
2018-07-14T04:49:34.227Z,1012.2
2018-07-14T04:50:34.213Z,1012.2
2018-07-14T04:51:34.201Z,1012.2
2018-07-14T04:52:34.187Z,1012.19
2018-07-14T04:53:34.178Z,1012.17
2018-07-14T04:54:34.165Z,1012.18
2018-07-14T04:55:34.153Z,1012.18
2018-07-14T04:56:34.139Z,1012.21
2018-07-14T04:57:34.140Z,1012.23
2018-07-14T04:58:34.116Z,1012.24
2018-07-14T04:59:34.102Z,1012.24
2018-07-14T05:00:34.091Z,1012.23
2018-07-14T05:01:34.078Z,1012.26
2018-07-14T05:02:34.067Z,1012.28
2018-07-14T05:03:34.057Z,1012.24
2018-07-14T05:04:34.041Z,1012.24
2018-07-14T05:05:34.029Z,1012.25
2018-07-14T05:06:34.029Z,1012.25
2018-07-14T05:07:34.006Z,1012.24
2018-07-14T05:08:33.991Z,1012.18
2018-07-14T05:09:33.979Z,1012.2
2018-07-14T05:10:33.966Z,1012.2
2018-07-14T05:11:33.953Z,1012.19
2018-07-14T05:12:33.941Z,1012.15
2018-07-14T05:13:33.932Z,1012.16
2018-07-14T05:14:33.917Z,1012.14
2018-07-14T05:15:33.911Z,1012.14
2018-07-14T05:16:33.892Z,1012.15
2018-07-14T05:17:33.880Z,1012.16
2018-07-14T05:18:33.868Z,1012.14
2018-07-14T05:19:33.858Z,1012.15
2018-07-14T05:20:33.843Z,1012.16
2018-07-14T05:21:33.832Z,1012.15
2018-07-14T05:22:33.824Z,1012.17
2018-07-14T05:23:33.809Z,1012.14
2018-07-14T05:24:33.798Z,1012.16
2018-07-14T05:25:33.783Z,1012.14
2018-07-14T05:26:33.774Z,1012.2
2018-07-14T05:27:33.766Z,1012.18
2018-07-14T05:28:33.801Z,1012.2
2018-07-14T05:29:33.735Z,1012.18
2018-07-14T05:30:33.724Z,1012.21
2018-07-14T05:31:33.712Z,1012.18
2018-07-14T05:32:33.700Z,1012.17
2018-07-14T05:33:33.689Z,1012.21
2018-07-14T05:34:33.678Z,1012.19
2018-07-14T05:35:33.672Z,1012.17
2018-07-14T05:36:33.654Z,1012.21
2018-07-14T05:37:33.641Z,1012.17
2018-07-14T05:38:33.633Z,1012.22
2018-07-14T05:39:33.620Z,1012.18
2018-07-14T05:40:33.605Z,1012.18
2018-07-14T05:41:33.593Z,1012.17
2018-07-14T05:42:33.582Z,1012.14
2018-07-14T05:43:33.577Z,1012.13
2018-07-14T05:44:33.558Z,1012.14
2018-07-14T05:45:33.545Z,1012.15
2018-07-14T05:46:33.537Z,1012.17
2018-07-14T05:47:33.523Z,1012.19
2018-07-14T05:48:33.512Z,1012.21
2018-07-14T05:49:33.499Z,1012.21
2018-07-14T05:50:33.490Z,1012.2
2018-07-14T05:51:33.478Z,1012.22
2018-07-14T05:52:33.466Z,1012.23
2018-07-14T05:53:33.454Z,1012.23
2018-07-14T05:54:33.442Z,1012.14
2018-07-14T05:55:33.637Z,1012.14
2018-07-14T05:56:33.421Z,1012.19
2018-07-14T05:57:33.410Z,1012.2
2018-07-14T05:58:33.396Z,1012.2
2018-07-14T05:59:33.384Z,1012.16
2018-07-14T06:00:33.374Z,1012.24
2018-07-14T06:01:33.363Z,1012.22
2018-07-14T06:02:33.347Z,1012.16
2018-07-14T06:03:33.340Z,1012.19
2018-07-14T06:04:33.326Z,1012.24
2018-07-14T06:05:33.314Z,1012.25
2018-07-14T06:06:33.302Z,1012.24
2018-07-14T06:07:33.295Z,1012.25
2018-07-14T06:08:33.286Z,1012.25
2018-07-14T06:09:33.268Z,1012.28
2018-07-14T06:10:33.256Z,1012.29
2018-07-14T06:11:33.248Z,1012.29
2018-07-14T06:12:33.232Z,1012.29
2018-07-14T06:13:33.226Z,1012.29
2018-07-14T06:14:33.212Z,1012.29
2018-07-14T06:15:33.206Z,1012.29
2018-07-14T06:16:33.190Z,1012.38
2018-07-14T06:17:33.180Z,1012.44
2018-07-14T06:18:33.166Z,1012.46
2018-07-14T06:19:33.229Z,1012.5
2018-07-14T06:20:33.166Z,1012.49
2018-07-14T06:21:33.132Z,1012.53
2018-07-14T06:22:33.122Z,1012.48
2018-07-14T06:23:33.111Z,1012.48
2018-07-14T06:24:33.099Z,1012.46
2018-07-14T06:25:33.090Z,1012.44
2018-07-14T06:26:33.083Z,1012.41
2018-07-14T06:27:33.069Z,1012.47
2018-07-14T06:28:33.058Z,1012.46
2018-07-14T06:29:33.048Z,1012.46
2018-07-14T06:30:33.085Z,1012.45
2018-07-14T06:31:33.035Z,1012.48
2018-07-14T06:32:33.016Z,1012.5
2018-07-14T06:33:33.005Z,1012.5
2018-07-14T06:34:33.000Z,1012.48
2018-07-14T06:35:32.982Z,1012.51
2018-07-14T06:36:32.972Z,1012.49
2018-07-14T06:37:32.963Z,1012.52
2018-07-14T06:38:32.988Z,1012.53
2018-07-14T06:39:32.942Z,1012.51
2018-07-14T06:40:32.929Z,1012.56
2018-07-14T06:41:32.920Z,1012.49
2018-07-14T06:42:32.908Z,1012.49
2018-07-14T06:43:32.909Z,1012.57
2018-07-14T06:44:32.886Z,1012.56
2018-07-14T06:45:32.875Z,1012.54
2018-07-14T06:46:32.867Z,1012.59
2018-07-14T06:47:32.857Z,1012.59
2018-07-14T06:48:32.843Z,1012.6
2018-07-14T06:49:32.836Z,1012.6
2018-07-14T06:50:32.821Z,1012.6
2018-07-14T06:51:32.815Z,1012.62
2018-07-14T06:52:32.804Z,1012.66
2018-07-14T06:53:32.789Z,1012.66
2018-07-14T06:54:32.781Z,1012.64
2018-07-14T06:55:32.770Z,1012.63
2018-07-14T06:56:32.758Z,1012.63
2018-07-14T06:57:32.748Z,1012.64
2018-07-14T06:58:32.737Z,1012.64
2018-07-14T06:59:32.728Z,1012.63
2018-07-14T07:00:32.717Z,1012.67
2018-07-14T07:01:32.709Z,1012.69
2018-07-14T07:02:32.696Z,1012.65
2018-07-14T07:03:32.689Z,1012.65
2018-07-14T07:04:32.675Z,1012.64
2018-07-14T07:05:32.666Z,1012.64
2018-07-14T07:06:32.654Z,1012.61
2018-07-14T07:07:32.651Z,1012.62
2018-07-14T07:08:32.639Z,1012.63
2018-07-14T07:09:32.624Z,1012.66
2018-07-14T07:10:32.613Z,1012.64
2018-07-14T07:11:32.604Z,1012.66
2018-07-14T07:12:32.594Z,1012.65
2018-07-14T07:13:32.583Z,1012.63
2018-07-14T07:14:32.574Z,1012.62
2018-07-14T07:15:32.561Z,1012.63
2018-07-14T07:16:32.556Z,1012.67
2018-07-14T07:17:32.542Z,1012.64
2018-07-14T07:18:32.530Z,1012.61
2018-07-14T07:19:32.520Z,1012.58
2018-07-14T07:20:32.511Z,1012.56
2018-07-14T07:21:32.578Z,1012.57
2018-07-14T07:22:32.489Z,1012.56
2018-07-14T07:23:32.484Z,1012.52
2018-07-14T07:24:32.468Z,1012.56
2018-07-14T07:25:32.461Z,1012.54
2018-07-14T07:26:32.455Z,1012.5
2018-07-14T07:27:32.442Z,1012.51
2018-07-14T07:28:32.433Z,1012.54
2018-07-14T07:29:32.424Z,1012.54
2018-07-14T07:30:32.412Z,1012.56
2018-07-14T07:31:32.401Z,1012.54
2018-07-14T07:32:32.392Z,1012.57
2018-07-14T07:33:32.381Z,1012.65
2018-07-14T07:34:32.376Z,1012.78
2018-07-14T07:35:32.403Z,1012.79
2018-07-14T07:36:32.354Z,1012.83
2018-07-14T07:37:32.343Z,1012.82
2018-07-14T07:38:32.335Z,1012.82
2018-07-14T07:39:32.327Z,1012.86
2018-07-14T07:40:32.318Z,1012.88
2018-07-14T07:41:32.310Z,1012.91
2018-07-14T07:42:32.305Z,1012.86
2018-07-14T07:43:32.299Z,1012.84
2018-07-14T07:44:32.290Z,1012.93
2018-07-14T07:45:32.283Z,1012.93
2018-07-14T07:46:32.279Z,1012.97
2018-07-14T07:47:32.276Z,1012.98
2018-07-14T07:48:32.267Z,1012.98
2018-07-14T07:49:32.269Z,1012.99
2018-07-14T07:50:32.263Z,1013
2018-07-14T07:51:32.252Z,1013.03
2018-07-14T07:52:32.246Z,1013.08
2018-07-14T07:53:32.242Z,1013.1
2018-07-14T07:54:32.239Z,1013.06
2018-07-14T07:55:32.231Z,1013.09
2018-07-14T07:56:32.232Z,1013.11
2018-07-14T07:57:32.224Z,1013.07
2018-07-14T07:58:32.220Z,1013.06
2018-07-14T07:59:32.218Z,1013.08
2018-07-14T08:00:32.214Z,1013.08
2018-07-14T08:01:32.215Z,1013.09
2018-07-14T08:02:32.219Z,1013.1
2018-07-14T08:03:32.216Z,1013.08
2018-07-14T08:04:32.208Z,1013.07
2018-07-14T08:05:32.201Z,1013.08
2018-07-14T08:06:32.198Z,1013.05
2018-07-14T08:07:32.204Z,1013.05
2018-07-14T08:08:32.217Z,1013.04
2018-07-14T08:09:32.189Z,1013.03
2018-07-14T08:10:32.188Z,1013.07
2018-07-14T08:11:32.185Z,1013.04
2018-07-14T08:12:32.185Z,1013.04
2018-07-14T08:13:32.185Z,1013
2018-07-14T08:14:32.179Z,1013.02
2018-07-14T08:15:32.180Z,1013.02
2018-07-14T08:16:32.179Z,1013.04
2018-07-14T08:17:32.177Z,1013.06
2018-07-14T08:18:32.177Z,1013.06
2018-07-14T08:19:32.180Z,1013.04
2018-07-14T08:20:32.171Z,1013.04
2018-07-14T08:21:32.173Z,1013
2018-07-14T08:22:32.173Z,1012.96
2018-07-14T08:23:32.173Z,1013
2018-07-14T08:24:32.170Z,1012.95
2018-07-14T08:25:32.170Z,1012.98
2018-07-14T08:26:32.177Z,1012.87
2018-07-14T08:27:32.170Z,1012.9
2018-07-14T08:28:32.171Z,1012.83
2018-07-14T08:29:32.176Z,1012.84
2018-07-14T08:30:32.173Z,1012.85
2018-07-14T08:31:32.166Z,1012.79
2018-07-14T08:32:32.297Z,1012.86
2018-07-14T08:33:32.167Z,1012.84
2018-07-14T08:34:32.167Z,1012.85
2018-07-14T08:35:32.166Z,1012.85
2018-07-14T08:36:32.165Z,1012.89
2018-07-14T08:37:32.173Z,1012.97
2018-07-14T08:38:32.167Z,1013.06
2018-07-14T08:39:32.164Z,1012.94
2018-07-14T08:40:32.152Z,1012.91
2018-07-14T08:41:32.168Z,1012.8
2018-07-14T08:42:32.149Z,1012.79
2018-07-14T08:43:32.148Z,1012.79
2018-07-14T08:44:32.142Z,1012.83
2018-07-14T08:45:32.140Z,1012.88
2018-07-14T08:46:32.138Z,1012.79
2018-07-14T08:47:32.133Z,1012.84
2018-07-14T08:48:32.143Z,1012.83
2018-07-14T08:49:32.130Z,1012.85
2018-07-14T08:50:32.189Z,1012.86
2018-07-14T08:51:32.204Z,1012.9
2018-07-14T08:52:32.133Z,1012.87
2018-07-14T08:53:32.116Z,1012.82
2018-07-14T08:54:32.111Z,1012.83
2018-07-14T08:55:32.111Z,1012.88
2018-07-14T08:56:32.114Z,1012.86
2018-07-14T08:57:32.099Z,1012.82
2018-07-14T08:58:32.098Z,1012.95
2018-07-14T08:59:32.108Z,1012.89
2018-07-14T09:00:32.090Z,1012.81
2018-07-14T09:01:32.082Z,1012.88
2018-07-14T09:02:32.077Z,1012.84
2018-07-14T09:03:32.082Z,1012.98
2018-07-14T09:04:32.075Z,1013.09
2018-07-14T09:05:32.068Z,1013.02
2018-07-14T09:06:32.061Z,1013.23
2018-07-14T09:07:32.069Z,1013.28
2018-07-14T09:08:32.054Z,1013.29
2018-07-14T09:09:32.050Z,1013.09
2018-07-14T09:10:32.047Z,1012.93
2018-07-14T09:11:32.051Z,1012.98
2018-07-14T09:12:32.041Z,1012.93
2018-07-14T09:13:32.036Z,1012.98
2018-07-14T09:14:32.031Z,1012.85
2018-07-14T09:15:32.032Z,1012.9
2018-07-14T09:16:32.078Z,1012.92
2018-07-14T09:17:32.023Z,1012.89
2018-07-14T09:18:32.019Z,1012.91
2018-07-14T09:19:32.017Z,1012.88
2018-07-14T09:20:32.018Z,1012.94
2018-07-14T09:21:32.020Z,1012.93
2018-07-14T09:22:32.006Z,1012.87
2018-07-14T09:23:32.003Z,1012.77
2018-07-14T09:24:31.998Z,1012.9
2018-07-14T09:25:31.996Z,1012.87
2018-07-14T09:26:32.000Z,1012.9
2018-07-14T09:27:31.999Z,1012.82
2018-07-14T09:28:31.992Z,1012.8
2018-07-14T09:29:31.990Z,1012.87
2018-07-14T09:30:31.982Z,1012.95
2018-07-14T09:31:31.975Z,1012.77
2018-07-14T09:32:32.014Z,1012.8
2018-07-14T09:33:31.967Z,1012.94
2018-07-14T09:34:31.963Z,1012.72
2018-07-14T09:35:31.994Z,1012.75
2018-07-14T09:36:31.961Z,1012.73
2018-07-14T09:37:31.958Z,1012.72
2018-07-14T09:38:31.947Z,1012.75
2018-07-14T09:39:31.949Z,1012.88
2018-07-14T09:40:31.944Z,1012.74
2018-07-14T09:41:31.938Z,1012.72
2018-07-14T09:42:31.936Z,1012.71
2018-07-14T09:43:31.932Z,1012.67
2018-07-14T09:44:31.966Z,1012.71
2018-07-14T09:45:31.932Z,1012.64
2018-07-14T09:46:31.919Z,1012.62
2018-07-14T09:47:31.918Z,1012.64
2018-07-14T09:48:31.912Z,1012.62
2018-07-14T09:49:31.918Z,1012.63
2018-07-14T09:50:31.903Z,1012.6
2018-07-14T09:51:31.902Z,1012.61
2018-07-14T09:52:31.901Z,1012.58
2018-07-14T09:53:31.890Z,1012.57
2018-07-14T09:54:31.886Z,1012.59
2018-07-14T09:55:31.882Z,1012.56
2018-07-14T09:56:32.083Z,1012.61
2018-07-14T09:57:31.879Z,1012.56
2018-07-14T09:58:31.871Z,1012.59
2018-07-14T09:59:31.871Z,1012.51
2018-07-14T10:00:31.860Z,1012.49
2018-07-14T10:01:31.858Z,1012.46
2018-07-14T10:02:31.851Z,1012.43
2018-07-14T10:03:31.971Z,1012.42
2018-07-14T10:04:31.842Z,1012.46
2018-07-14T10:05:31.839Z,1012.4
2018-07-14T10:06:31.832Z,1012.38
2018-07-14T10:07:31.833Z,1012.35
2018-07-14T10:08:31.824Z,1012.4
2018-07-14T10:09:31.817Z,1012.45
2018-07-14T10:10:31.810Z,1012.39
2018-07-14T10:11:31.806Z,1012.33
2018-07-14T10:12:31.801Z,1012.37
2018-07-14T10:13:31.798Z,1012.38
2018-07-14T10:14:31.791Z,1012.36
2018-07-14T10:15:31.786Z,1012.33
2018-07-14T10:16:31.783Z,1012.36
2018-07-14T10:17:31.789Z,1012.32
2018-07-14T10:18:31.781Z,1012.39
2018-07-14T10:19:31.773Z,1012.37
2018-07-14T10:20:31.762Z,1012.37
2018-07-14T10:21:31.757Z,1012.41
2018-07-14T10:22:31.750Z,1012.38
2018-07-14T10:23:31.746Z,1012.4
2018-07-14T10:24:31.741Z,1012.34
2018-07-14T10:25:31.765Z,1012.3
2018-07-14T10:26:31.732Z,1012.34
2018-07-14T10:27:31.724Z,1012.42
2018-07-14T10:28:31.720Z,1012.5
2018-07-14T10:29:31.716Z,1012.58
2018-07-14T10:30:31.713Z,1012.64
2018-07-14T10:31:31.710Z,1012.45
2018-07-14T10:32:31.709Z,1012.69
2018-07-14T10:33:31.730Z,1012.71
2018-07-14T10:34:31.702Z,1012.71
2018-07-14T10:35:31.700Z,1012.72
2018-07-14T10:36:31.695Z,1012.71
2018-07-14T10:37:31.689Z,1012.7
2018-07-14T10:38:31.728Z,1012.72
2018-07-14T10:39:31.696Z,1012.72
2018-07-14T10:40:31.688Z,1012.68
2018-07-14T10:41:31.692Z,1012.72
2018-07-14T10:42:31.710Z,1012.68
2018-07-14T10:43:31.688Z,1012.68
2018-07-14T10:44:31.691Z,1012.68
2018-07-14T10:45:31.691Z,1012.77
2018-07-14T10:46:31.692Z,1012.73
2018-07-14T10:47:31.695Z,1012.73
2018-07-14T10:48:31.697Z,1012.75
2018-07-14T10:49:31.701Z,1012.67
2018-07-14T10:50:31.702Z,1012.65
2018-07-14T10:51:31.734Z,1012.62
2018-07-14T10:52:31.710Z,1012.56
2018-07-14T10:53:31.712Z,1012.5
2018-07-14T10:54:31.715Z,1012.5
2018-07-14T10:55:31.719Z,1012.45
2018-07-14T10:56:31.723Z,1012.39
2018-07-14T10:57:31.730Z,1012.39
2018-07-14T10:58:31.732Z,1012.42
2018-07-14T10:59:31.736Z,1012.41
2018-07-14T11:00:31.739Z,1012.38
2018-07-14T11:01:31.749Z,1012.37
2018-07-14T11:02:31.754Z,1012.4
2018-07-14T11:03:31.756Z,1012.38
2018-07-14T11:04:31.800Z,1012.43
2018-07-14T11:05:31.773Z,1012.39
2018-07-14T11:06:31.778Z,1012.4
2018-07-14T11:07:32.352Z,1012.4
2018-07-14T11:08:31.802Z,1012.39
2018-07-14T11:09:31.797Z,1012.36
2018-07-14T11:10:31.796Z,1012.43
2018-07-14T11:11:31.800Z,1012.4
2018-07-14T11:12:31.805Z,1012.41
2018-07-14T11:13:31.812Z,1012.39
2018-07-14T11:14:31.869Z,1012.36
2018-07-14T11:15:31.828Z,1012.37
2018-07-14T11:16:31.838Z,1012.33
2018-07-14T11:17:31.840Z,1012.33
2018-07-14T11:18:31.845Z,1012.33
2018-07-14T11:19:31.847Z,1012.3
2018-07-14T11:20:31.854Z,1012.31
2018-07-14T11:21:31.862Z,1012.32
2018-07-14T11:22:31.870Z,1012.26
2018-07-14T11:23:31.881Z,1012.24
2018-07-14T11:24:31.879Z,1012.17
2018-07-14T11:25:31.893Z,1012.19
2018-07-14T11:26:31.892Z,1012.2
2018-07-14T11:27:31.901Z,1012.21
2018-07-14T11:28:31.910Z,1012.2
2018-07-14T11:29:31.929Z,1012.14
2018-07-14T11:30:31.923Z,1012.1
2018-07-14T11:31:31.925Z,1012.13
2018-07-14T11:32:31.932Z,1012.15
2018-07-14T11:33:31.937Z,1012.17
2018-07-14T11:34:32.020Z,1012.16
2018-07-14T11:35:31.952Z,1012.18
2018-07-14T11:36:31.957Z,1012.13
2018-07-14T11:37:32.009Z,1012.14
2018-07-14T11:38:31.977Z,1012.15
2018-07-14T11:39:31.977Z,1012.15
2018-07-14T11:40:31.985Z,1012.1
2018-07-14T11:41:31.992Z,1012.12
2018-07-14T11:42:31.996Z,1012.07
2018-07-14T11:43:32.005Z,1012.08
2018-07-14T11:44:32.011Z,1012.08
2018-07-14T11:45:32.017Z,1012.03
2018-07-14T11:46:32.025Z,1012.02
2018-07-14T11:47:32.053Z,1012
2018-07-14T11:48:32.039Z,1011.99
2018-07-14T11:49:32.047Z,1012.07
2018-07-14T11:50:32.063Z,1012
2018-07-14T11:51:32.063Z,1012.02
2018-07-14T11:52:32.067Z,1012
2018-07-14T11:53:32.074Z,1012.04
2018-07-14T11:54:32.084Z,1012.02
2018-07-14T11:55:32.091Z,1012.02
2018-07-14T11:56:32.299Z,1012.01
2018-07-14T11:57:32.105Z,1012.02
2018-07-14T11:58:32.113Z,1012.04
2018-07-14T11:59:32.121Z,1011.97
2018-07-14T12:00:32.129Z,1012.02
2018-07-14T12:01:32.138Z,1011.98
2018-07-14T12:02:32.153Z,1012
2018-07-14T12:03:32.152Z,1011.98
2018-07-14T12:04:32.168Z,1011.97
2018-07-14T12:05:32.169Z,1011.93
2018-07-14T12:06:32.178Z,1011.97
2018-07-14T12:07:32.186Z,1011.91
2018-07-14T12:08:32.192Z,1011.93
2018-07-14T12:09:32.204Z,1011.89
2018-07-14T12:10:32.212Z,1011.9